Neilburg, Canada
Current Conditions -  °F | °C
As of 7:00 AM on Friday 24 Oct 2014 (Local Time) from CYLL Reporting Station
Scattered Clouds Scattered Clouds  
Wind Chill: -2°   Ceiling: Unl
Heat Index:   Visibility: 9mi
Dew Point:   Wind: 23mph
Humidity: 75%   Direction: 280°W
Pressure: 29.63"   Gusts: 31mph
Location:  52.83°N, 109.63°W
Report Text: CYLL 241200Z AUTO 28020G27KT 9SM FEW150 SCT170 04/M00 A2963 RMK SLP051
Loading
Personal Weather Stations






























Interactive Weather Map
Tropical Storm Tracking
New forecast layout! Learn more

10-Day Weather Forecast

Advertisements
Track Severe Weather on mobile